KJMR

Mora Municipal Airport

Mora, Minnesota, USA
METAR KJMR 181935Z AUTO 20007KT 10SM CLR 01/M02 A2965 RMK AO2
Observed Flight Rules
Dec-18 @ 19:35 UTC (34 minutes ago) Visual Flight Rules
Wind Visibility Clouds
200° at 7 knots 10 miles
  • Clear skies
Temperatures Readings
Current 1°C / 34°F
Dewpoint -2°C / 28°F
Humidity 81%
Altimeter 29.65" Hg
Pressure 1004 hPa
Elevation 309
METAR KJMR 181935Z AUTO 20007KT 10SM CLR 01/M02 A2965 RMK AO2
Observed Flight Rules
Dec-18 @ 19:35 UTC
(34 minutes ago)
VFR
Wind Visibility
200° at 7 knots 10 miles
Clouds
  • Clear skies
Temperature Dewpoint
1°C / 34°F -2°C / 28°F
Humidity Altimeter Pressure
81% 29.65" Hg 1004 hPa